sensor_id;sensor_type;location;lat;lon;timestamp;pressure;altitude;pressure_sealevel;temperature;humidity
59600;BME280;61855;55.030;73.326;2022-07-29T00:01:27;99159.72;;;17.41;nan
59600;BME280;61855;55.030;73.326;2022-07-29T00:03:53;99148.91;;;17.46;nan
59600;BME280;61855;55.030;73.326;2022-07-29T00:06:19;99147.59;;;17.49;nan
59600;BME280;61855;55.030;73.326;2022-07-29T00:08:51;99152.91;;;17.55;nan
59600;BME280;61855;55.030;73.326;2022-07-29T00:11:22;99136.06;;;17.58;nan
59600;BME280;61855;55.030;73.326;2022-07-29T00:13:48;99136.63;;;17.61;nan
59600;BME280;61855;55.030;73.326;2022-07-29T00:16:20;99133.16;;;17.65;nan
59600;BME280;61855;55.030;73.326;2022-07-29T00:18:51;99122.16;;;17.60;nan
59600;BME280;61855;55.030;73.326;2022-07-29T00:21:18;99141.75;;;17.74;nan
59600;BME280;61855;55.030;73.326;2022-07-29T00:23:43;99137.28;;;17.68;nan
59600;BME280;61855;55.030;73.326;2022-07-29T00:26:12;99147.19;;;17.74;nan
59600;BME280;61855;55.030;73.326;2022-07-29T00:28:48;99153.19;;;17.71;nan
59600;BME280;61855;55.030;73.326;2022-07-29T00:31:14;99151.59;;;17.75;nan
59600;BME280;61855;55.030;73.326;2022-07-29T00:33:43;99160.69;;;17.80;nan
59600;BME280;61855;55.030;73.326;2022-07-29T00:36:09;99164.56;;;17.84;nan
59600;BME280;61855;55.030;73.326;2022-07-29T00:38:35;99162.34;;;17.81;nan
59600;BME280;61855;55.030;73.326;2022-07-29T00:41:01;99159.38;;;17.83;nan
59600;BME280;61855;55.030;73.326;2022-07-29T00:43:29;99157.72;;;17.82;nan
59600;BME280;61855;55.030;73.326;2022-07-29T00:45:55;99172.41;;;17.81;nan
59600;BME280;61855;55.030;73.326;2022-07-29T00:48:21;99167.47;;;17.78;nan
59600;BME280;61855;55.030;73.326;2022-07-29T00:50:49;99177.31;;;17.79;nan
59600;BME280;61855;55.030;73.326;2022-07-29T00:53:26;99185.16;;;17.75;nan
59600;BME280;61855;55.030;73.326;2022-07-29T00:55:56;99186.22;;;17.74;nan
59600;BME280;61855;55.030;73.326;2022-07-29T00:58:24;99170.34;;;17.71;nan
59600;BME280;61855;55.030;73.326;2022-07-29T01:00:51;99171.09;;;17.67;nan
59600;BME280;61855;55.030;73.326;2022-07-29T01:03:18;99162.91;;;17.67;nan
59600;BME280;61855;55.030;73.326;2022-07-29T01:05:45;99172.31;;;17.59;nan
59600;BME280;61855;55.030;73.326;2022-07-29T01:08:15;99172.59;;;17.57;nan
59600;BME280;61855;55.030;73.326;2022-07-29T01:10:42;99165.50;;;17.56;nan
59600;BME280;61855;55.030;73.326;2022-07-29T01:13:14;99180.19;;;17.55;nan
59600;BME280;61855;55.030;73.326;2022-07-29T01:15:44;99157.22;;;17.51;nan
59600;BME280;61855;55.030;73.326;2022-07-29T01:18:16;99178.44;;;17.49;nan
59600;BME280;61855;55.030;73.326;2022-07-29T01:21:07;99180.91;;;17.51;nan
59600;BME280;61855;55.030;73.326;2022-07-29T01:26:38;99176.66;;;17.43;nan
59600;BME280;61855;55.030;73.326;2022-07-29T01:29:30;99189.47;;;17.43;nan
59600;BME280;61855;55.030;73.326;2022-07-29T01:32:18;99190.31;;;17.43;nan
59600;BME280;61855;55.030;73.326;2022-07-29T01:39:57;99189.38;;;17.38;nan
59600;BME280;61855;55.030;73.326;2022-07-29T01:42:38;99191.06;;;17.39;nan
59600;BME280;61855;55.030;73.326;2022-07-29T01:46:00;99191.31;;;17.37;nan
59600;BME280;61855;55.030;73.326;2022-07-29T01:48:04;99200.44;;;17.31;nan
59600;BME280;61855;55.030;73.326;2022-07-29T01:50:38;99214.34;;;17.30;nan
59600;BME280;61855;55.030;73.326;2022-07-29T01:53:09;99196.31;;;17.29;nan
59600;BME280;61855;55.030;73.326;2022-07-29T01:55:44;99213.75;;;17.28;nan
59600;BME280;61855;55.030;73.326;2022-07-29T01:58:14;99211.25;;;17.26;nan
59600;BME280;61855;55.030;73.326;2022-07-29T02:00:41;99225.25;;;17.30;nan
59600;BME280;61855;55.030;73.326;2022-07-29T02:03:11;99220.63;;;17.30;nan
59600;BME280;61855;55.030;73.326;2022-07-29T02:05:41;99218.47;;;17.32;nan
59600;BME280;61855;55.030;73.326;2022-07-29T02:08:08;99221.19;;;17.32;nan
59600;BME280;61855;55.030;73.326;2022-07-29T02:10:38;99223.94;;;17.32;nan
59600;BME280;61855;55.030;73.326;2022-07-29T02:13:06;99227.13;;;17.29;nan
59600;BME280;61855;55.030;73.326;2022-07-29T02:15:34;99229.03;;;17.29;nan
59600;BME280;61855;55.030;73.326;2022-07-29T02:18:08;99249.78;;;17.30;nan
59600;BME280;61855;55.030;73.326;2022-07-29T02:20:36;99239.94;;;17.29;nan
59600;BME280;61855;55.030;73.326;2022-07-29T02:23:20;99250.63;;;17.30;nan
59600;BME280;61855;55.030;73.326;2022-07-29T02:25:54;99242.44;;;17.30;nan
59600;BME280;61855;55.030;73.326;2022-07-29T02:28:24;99246.56;;;17.33;nan
59600;BME280;61855;55.030;73.326;2022-07-29T02:30:52;99228.06;;;17.35;nan
59600;BME280;61855;55.030;73.326;2022-07-29T02:33:20;99230.53;;;17.36;nan
59600;BME280;61855;55.030;73.326;2022-07-29T02:35:47;99229.81;;;17.41;nan
59600;BME280;61855;55.030;73.326;2022-07-29T02:38:15;99221.97;;;17.44;nan
59600;BME280;61855;55.030;73.326;2022-07-29T02:41:04;99224.72;;;17.44;nan
59600;BME280;61855;55.030;73.326;2022-07-29T02:43:33;99224.19;;;17.47;nan
59600;BME280;61855;55.030;73.326;2022-07-29T02:46:08;99215.44;;;17.45;nan
59600;BME280;61855;55.030;73.326;2022-07-29T02:48:41;99212.81;;;17.50;nan
59600;BME280;61855;55.030;73.326;2022-07-29T02:51:23;99206.78;;;17.48;nan
59600;BME280;61855;55.030;73.326;2022-07-29T02:53:53;99210.44;;;17.54;nan
59600;BME280;61855;55.030;73.326;2022-07-29T02:56:27;99205.00;;;17.54;nan
59600;BME280;61855;55.030;73.326;2022-07-29T02:59:07;99227.63;;;17.54;nan
59600;BME280;61855;55.030;73.326;2022-07-29T03:01:35;99225.50;;;17.56;nan
59600;BME280;61855;55.030;73.326;2022-07-29T03:04:04;99224.41;;;17.57;nan
59600;BME280;61855;55.030;73.326;2022-07-29T03:06:37;99227.50;;;17.61;nan
59600;BME280;61855;55.030;73.326;2022-07-29T03:09:07;99225.00;;;17.59;nan
59600;BME280;61855;55.030;73.326;2022-07-29T03:11:34;99226.97;;;17.64;nan
59600;BME280;61855;55.030;73.326;2022-07-29T03:14:01;99206.56;;;17.67;nan
59600;BME280;61855;55.030;73.326;2022-07-29T03:16:28;99207.13;;;17.69;nan
59600;BME280;61855;55.030;73.326;2022-07-29T03:19:00;99197.88;;;17.70;nan
59600;BME280;61855;55.030;73.326;2022-07-29T03:21:36;99210.13;;;17.67;nan
59600;BME280;61855;55.030;73.326;2022-07-29T03:24:03;99194.50;;;17.63;nan
59600;BME280;61855;55.030;73.326;2022-07-29T03:26:31;99204.34;;;17.64;nan
59600;BME280;61855;55.030;73.326;2022-07-29T03:28:57;99209.53;;;17.65;nan
59600;BME280;61855;55.030;73.326;2022-07-29T03:31:23;99219.06;;;17.63;nan
59600;BME280;61855;55.030;73.326;2022-07-29T03:33:49;99214.44;;;17.63;nan
59600;BME280;61855;55.030;73.326;2022-07-29T03:36:16;99207.31;;;17.62;nan
59600;BME280;61855;55.030;73.326;2022-07-29T03:38:47;99204.84;;;17.61;nan
59600;BME280;61855;55.030;73.326;2022-07-29T03:41:14;99207.78;;;17.59;nan
59600;BME280;61855;55.030;73.326;2022-07-29T03:43:42;99210.59;;;17.64;nan
59600;BME280;61855;55.030;73.326;2022-07-29T03:46:20;99218.78;;;17.64;nan
59600;BME280;61855;55.030;73.326;2022-07-29T03:48:50;99212.28;;;17.65;nan
59600;BME280;61855;55.030;73.326;2022-07-29T03:51:18;99204.94;;;17.66;nan
59600;BME280;61855;55.030;73.326;2022-07-29T03:53:44;99202.19;;;17.66;nan
59600;BME280;61855;55.030;73.326;2022-07-29T03:56:15;99191.28;;;17.66;nan
59600;BME280;61855;55.030;73.326;2022-07-29T03:58:42;99196.66;;;17.77;nan
59600;BME280;61855;55.030;73.326;2022-07-29T04:01:10;99201.84;;;17.79;nan
59600;BME280;61855;55.030;73.326;2022-07-29T04:03:39;99186.66;;;17.83;nan
59600;BME280;61855;55.030;73.326;2022-07-29T04:06:07;99192.69;;;17.85;nan
59600;BME280;61855;55.030;73.326;2022-07-29T04:08:34;99204.09;;;17.82;nan
59600;BME280;61855;55.030;73.326;2022-07-29T04:11:10;99195.25;;;17.75;nan
59600;BME280;61855;55.030;73.326;2022-07-29T04:13:36;99199.03;;;17.74;nan
59600;BME280;61855;55.030;73.326;2022-07-29T04:16:02;99185.91;;;17.71;nan
59600;BME280;61855;55.030;73.326;2022-07-29T04:18:28;99186.50;;;17.73;nan
59600;BME280;61855;55.030;73.326;2022-07-29T04:20:54;99184.34;;;17.75;nan
59600;BME280;61855;55.030;73.326;2022-07-29T04:23:21;99195.06;;;17.65;nan
59600;BME280;61855;55.030;73.326;2022-07-29T04:25:47;99185.09;;;17.70;nan
59600;BME280;61855;55.030;73.326;2022-07-29T04:28:14;99189.44;;;17.71;nan
59600;BME280;61855;55.030;73.326;2022-07-29T04:30:40;99202.78;;;17.84;nan
59600;BME280;61855;55.030;73.326;2022-07-29T04:33:07;99183.81;;;18.11;nan
59600;BME280;61855;55.030;73.326;2022-07-29T04:35:36;99193.41;;;18.47;nan
59600;BME280;61855;55.030;73.326;2022-07-29T04:38:04;99193.78;;;18.77;nan
59600;BME280;61855;55.030;73.326;2022-07-29T04:40:30;99188.25;;;18.93;nan
59600;BME280;61855;55.030;73.326;2022-07-29T04:42:59;99187.03;;;19.33;nan
59600;BME280;61855;55.030;73.326;2022-07-29T04:45:27;99196.59;;;19.57;nan
59600;BME280;61855;55.030;73.326;2022-07-29T04:47:53;99195.09;;;19.71;nan
59600;BME280;61855;55.030;73.326;2022-07-29T04:50:19;99193.00;;;19.83;nan
59600;BME280;61855;55.030;73.326;2022-07-29T04:52:45;99191.44;;;19.92;nan
59600;BME280;61855;55.030;73.326;2022-07-29T04:55:11;99201.63;;;20.02;nan
59600;BME280;61855;55.030;73.326;2022-07-29T04:57:37;99188.22;;;20.00;nan
59600;BME280;61855;55.030;73.326;2022-07-29T05:00:04;99189.88;;;20.01;nan
59600;BME280;61855;55.030;73.326;2022-07-29T05:02:31;99190.53;;;20.18;nan
59600;BME280;61855;55.030;73.326;2022-07-29T05:04:57;99175.56;;;20.26;nan
59600;BME280;61855;55.030;73.326;2022-07-29T05:07:23;99184.72;;;20.42;nan
59600;BME280;61855;55.030;73.326;2022-07-29T05:09:49;99194.31;;;20.44;nan
59600;BME280;61855;55.030;73.326;2022-07-29T05:12:15;99178.19;;;20.53;nan
59600;BME280;61855;55.030;73.326;2022-07-29T05:14:41;99190.00;;;20.58;nan
59600;BME280;61855;55.030;73.326;2022-07-29T05:17:07;99195.78;;;20.67;nan
59600;BME280;61855;55.030;73.326;2022-07-29T05:19:33;99211.41;;;20.66;nan
59600;BME280;61855;55.030;73.326;2022-07-29T05:21:59;99184.81;;;20.67;nan
59600;BME280;61855;55.030;73.326;2022-07-29T05:24:25;99195.81;;;20.72;nan
59600;BME280;61855;55.030;73.326;2022-07-29T05:26:51;99193.06;;;20.72;nan
59600;BME280;61855;55.030;73.326;2022-07-29T05:29:17;99210.09;;;20.74;nan
59600;BME280;61855;55.030;73.326;2022-07-29T05:31:43;99189.53;;;20.76;nan
59600;BME280;61855;55.030;73.326;2022-07-29T05:34:11;99207.38;;;20.79;nan
59600;BME280;61855;55.030;73.326;2022-07-29T05:36:50;99189.03;;;20.84;nan
59600;BME280;61855;55.030;73.326;2022-07-29T05:39:16;99192.13;;;21.03;nan
59600;BME280;61855;55.030;73.326;2022-07-29T05:41:42;99186.13;;;21.16;nan
59600;BME280;61855;55.030;73.326;2022-07-29T05:44:08;99193.88;;;21.29;nan
59600;BME280;61855;55.030;73.326;2022-07-29T05:46:34;99191.69;;;21.41;nan
59600;BME280;61855;55.030;73.326;2022-07-29T05:49:05;99193.63;;;21.61;nan
59600;BME280;61855;55.030;73.326;2022-07-29T05:51:33;99211.22;;;21.75;nan
59600;BME280;61855;55.030;73.326;2022-07-29T05:53:59;99190.41;;;21.89;nan
59600;BME280;61855;55.030;73.326;2022-07-29T05:56:25;99206.59;;;21.96;nan
59600;BME280;61855;55.030;73.326;2022-07-29T05:58:57;99209.91;;;21.98;nan
59600;BME280;61855;55.030;73.326;2022-07-29T06:01:23;99210.97;;;21.82;nan
59600;BME280;61855;55.030;73.326;2022-07-29T06:03:50;99199.19;;;21.91;nan
59600;BME280;61855;55.030;73.326;2022-07-29T06:06:16;99192.56;;;21.87;nan
59600;BME280;61855;55.030;73.326;2022-07-29T06:08:42;99201.63;;;21.83;nan
59600;BME280;61855;55.030;73.326;2022-07-29T06:11:11;99195.84;;;21.79;nan
59600;BME280;61855;55.030;73.326;2022-07-29T06:13:37;99199.69;;;21.83;nan
59600;BME280;61855;55.030;73.326;2022-07-29T06:16:14;99205.75;;;21.85;nan
59600;BME280;61855;55.030;73.326;2022-07-29T06:18:46;99216.72;;;21.80;nan
59600;BME280;61855;55.030;73.326;2022-07-29T06:21:12;99222.00;;;21.87;nan
59600;BME280;61855;55.030;73.326;2022-07-29T06:23:39;99217.59;;;21.96;nan
59600;BME280;61855;55.030;73.326;2022-07-29T06:26:13;99216.22;;;21.98;nan
59600;BME280;61855;55.030;73.326;2022-07-29T06:28:39;99224.72;;;21.97;nan
59600;BME280;61855;55.030;73.326;2022-07-29T06:31:05;99223.63;;;21.93;nan
59600;BME280;61855;55.030;73.326;2022-07-29T06:33:32;99236.78;;;21.81;nan
59600;BME280;61855;55.030;73.326;2022-07-29T06:35:59;99224.16;;;21.90;nan
59600;BME280;61855;55.030;73.326;2022-07-29T06:38:25;99223.63;;;21.88;nan
59600;BME280;61855;55.030;73.326;2022-07-29T06:40:51;99213.75;;;21.87;nan
59600;BME280;61855;55.030;73.326;2022-07-29T06:43:37;99219.50;;;21.90;nan
59600;BME280;61855;55.030;73.326;2022-07-29T06:46:05;99211.81;;;21.92;nan
59600;BME280;61855;55.030;73.326;2022-07-29T06:48:33;99207.97;;;21.88;nan
59600;BME280;61855;55.030;73.326;2022-07-29T06:50:59;99203.03;;;22.00;nan
59600;BME280;61855;55.030;73.326;2022-07-29T06:53:26;99212.09;;;22.01;nan
59600;BME280;61855;55.030;73.326;2022-07-29T06:55:55;99189.56;;;22.14;nan
59600;BME280;61855;55.030;73.326;2022-07-29T06:58:21;99213.72;;;22.22;nan
59600;BME280;61855;55.030;73.326;2022-07-29T07:01:02;99205.50;;;22.27;nan
59600;BME280;61855;55.030;73.326;2022-07-29T07:03:28;99200.00;;;22.32;nan
59600;BME280;61855;55.030;73.326;2022-07-29T07:05:57;99212.00;;;22.51;nan
59600;BME280;61855;55.030;73.326;2022-07-29T07:08:24;99210.09;;;22.52;nan
59600;BME280;61855;55.030;73.326;2022-07-29T07:10:51;99217.81;;;22.50;nan
59600;BME280;61855;55.030;73.326;2022-07-29T07:13:17;99213.13;;;22.55;nan
59600;BME280;61855;55.030;73.326;2022-07-29T07:15:52;99215.84;;;22.75;nan
59600;BME280;61855;55.030;73.326;2022-07-29T07:18:19;99209.16;;;22.97;nan
59600;BME280;61855;55.030;73.326;2022-07-29T07:20:45;99214.88;;;23.15;nan
59600;BME280;61855;55.030;73.326;2022-07-29T07:23:12;99206.84;;;23.24;nan
59600;BME280;61855;55.030;73.326;2022-07-29T07:25:38;99221.34;;;23.39;nan
59600;BME280;61855;55.030;73.326;2022-07-29T07:28:04;99205.78;;;23.64;nan
59600;BME280;61855;55.030;73.326;2022-07-29T07:30:30;99199.88;;;23.80;nan
59600;BME280;61855;55.030;73.326;2022-07-29T07:33:06;99200.84;;;23.99;nan
59600;BME280;61855;55.030;73.326;2022-07-29T07:35:32;99206.59;;;24.08;nan
59600;BME280;61855;55.030;73.326;2022-07-29T07:38:01;99207.75;;;23.97;nan
59600;BME280;61855;55.030;73.326;2022-07-29T07:40:27;99206.34;;;23.99;nan
59600;BME280;61855;55.030;73.326;2022-07-29T07:42:53;99220.63;;;24.06;nan
59600;BME280;61855;55.030;73.326;2022-07-29T07:45:19;99202.72;;;24.38;nan
59600;BME280;61855;55.030;73.326;2022-07-29T07:47:49;99202.38;;;24.68;nan
59600;BME280;61855;55.030;73.326;2022-07-29T07:50:19;99190.44;;;24.77;nan
59600;BME280;61855;55.030;73.326;2022-07-29T07:52:53;99195.72;;;24.74;nan
59600;BME280;61855;55.030;73.326;2022-07-29T07:55:23;99197.06;;;25.00;nan
59600;BME280;61855;55.030;73.326;2022-07-29T07:57:55;99194.25;;;25.05;nan
59600;BME280;61855;55.030;73.326;2022-07-29T08:00:22;99200.28;;;25.07;nan
59600;BME280;61855;55.030;73.326;2022-07-29T08:02:48;99199.72;;;25.29;nan
59600;BME280;61855;55.030;73.326;2022-07-29T08:05:15;99206.81;;;25.35;nan
59600;BME280;61855;55.030;73.326;2022-07-29T08:07:49;99187.72;;;25.38;nan
59600;BME280;61855;55.030;73.326;2022-07-29T08:10:20;99176.16;;;25.36;nan
59600;BME280;61855;55.030;73.326;2022-07-29T08:13:08;99194.81;;;25.63;nan
59600;BME280;61855;55.030;73.326;2022-07-29T08:15:36;99188.44;;;26.00;nan
59600;BME280;61855;55.030;73.326;2022-07-29T08:18:04;99172.53;;;26.10;nan
59600;BME280;61855;55.030;73.326;2022-07-29T08:20:30;99187.75;;;26.27;nan
59600;BME280;61855;55.030;73.326;2022-07-29T08:22:59;99185.00;;;26.54;nan
59600;BME280;61855;55.030;73.326;2022-07-29T08:25:25;99186.84;;;26.45;nan
59600;BME280;61855;55.030;73.326;2022-07-29T08:27:51;99177.81;;;26.39;nan
59600;BME280;61855;55.030;73.326;2022-07-29T08:30:17;99182.50;;;26.25;nan
59600;BME280;61855;55.030;73.326;2022-07-29T08:32:43;99186.47;;;26.19;nan
59600;BME280;61855;55.030;73.326;2022-07-29T08:35:09;99185.97;;;26.17;nan
59600;BME280;61855;55.030;73.326;2022-07-29T08:37:41;99187.03;;;26.35;nan
59600;BME280;61855;55.030;73.326;2022-07-29T08:40:08;99185.69;;;26.32;nan
59600;BME280;61855;55.030;73.326;2022-07-29T08:42:34;99182.63;;;26.34;nan
59600;BME280;61855;55.030;73.326;2022-07-29T08:45:02;99176.47;;;26.37;nan
59600;BME280;61855;55.030;73.326;2022-07-29T08:47:28;99188.50;;;26.46;nan
59600;BME280;61855;55.030;73.326;2022-07-29T08:49:55;99189.28;;;26.46;nan
59600;BME280;61855;55.030;73.326;2022-07-29T08:52:23;99195.25;;;26.53;nan
59600;BME280;61855;55.030;73.326;2022-07-29T08:54:53;99192.50;;;26.67;nan
59600;BME280;61855;55.030;73.326;2022-07-29T08:57:19;99176.59;;;26.72;nan
59600;BME280;61855;55.030;73.326;2022-07-29T08:59:46;99182.25;;;26.67;nan
59600;BME280;61855;55.030;73.326;2022-07-29T09:02:21;99187.25;;;26.52;nan
59600;BME280;61855;55.030;73.326;2022-07-29T09:04:48;99187.34;;;26.33;nan
59600;BME280;61855;55.030;73.326;2022-07-29T09:07:18;99194.78;;;26.19;nan
59600;BME280;61855;55.030;73.326;2022-07-29T09:09:50;99195.19;;;26.12;nan
59600;BME280;61855;55.030;73.326;2022-07-29T09:12:17;99194.50;;;26.02;nan
59600;BME280;61855;55.030;73.326;2022-07-29T09:14:43;99196.59;;;25.91;nan
59600;BME280;61855;55.030;73.326;2022-07-29T09:17:09;99193.56;;;25.74;nan
59600;BME280;61855;55.030;73.326;2022-07-29T09:19:36;99196.38;;;25.88;nan
59600;BME280;61855;55.030;73.326;2022-07-29T09:22:05;99208.25;;;25.88;nan
59600;BME280;61855;55.030;73.326;2022-07-29T09:27:00;99198.19;;;25.79;nan
59600;BME280;61855;55.030;73.326;2022-07-29T09:29:26;99197.69;;;25.77;nan
59600;BME280;61855;55.030;73.326;2022-07-29T09:31:54;99186.72;;;26.04;nan
59600;BME280;61855;55.030;73.326;2022-07-29T09:34:23;99201.75;;;26.30;nan
59600;BME280;61855;55.030;73.326;2022-07-29T09:36:52;99186.16;;;26.20;nan
59600;BME280;61855;55.030;73.326;2022-07-29T09:39:32;99197.31;;;25.65;nan
59600;BME280;61855;55.030;73.326;2022-07-29T09:42:01;99201.22;;;25.21;nan
59600;BME280;61855;55.030;73.326;2022-07-29T09:44:41;99206.56;;;25.13;nan
59600;BME280;61855;55.030;73.326;2022-07-29T09:47:44;99208.63;;;25.02;nan
59600;BME280;61855;55.030;73.326;2022-07-29T09:50:11;99203.53;;;24.91;nan
59600;BME280;61855;55.030;73.326;2022-07-29T09:52:49;99212.81;;;25.00;nan
59600;BME280;61855;55.030;73.326;2022-07-29T09:55:16;99206.75;;;24.98;nan
59600;BME280;61855;55.030;73.326;2022-07-29T09:57:43;99190.34;;;25.06;nan
59600;BME280;61855;55.030;73.326;2022-07-29T10:00:10;99187.03;;;25.28;nan
59600;BME280;61855;55.030;73.326;2022-07-29T10:02:44;99200.28;;;25.49;nan
59600;BME280;61855;55.030;73.326;2022-07-29T10:05:25;99185.00;;;25.57;nan
59600;BME280;61855;55.030;73.326;2022-07-29T10:07:59;99176.56;;;25.67;nan
59600;BME280;61855;55.030;73.326;2022-07-29T10:10:28;99188.56;;;25.76;nan
59600;BME280;61855;55.030;73.326;2022-07-29T10:13:00;99168.91;;;25.78;nan
59600;BME280;61855;55.030;73.326;2022-07-29T10:15:33;99192.72;;;25.92;nan
59600;BME280;61855;55.030;73.326;2022-07-29T10:18:03;99197.06;;;25.80;nan
59600;BME280;61855;55.030;73.326;2022-07-29T10:20:29;99192.94;;;25.77;nan
59600;BME280;61855;55.030;73.326;2022-07-29T10:22:55;99176.09;;;25.79;nan
59600;BME280;61855;55.030;73.326;2022-07-29T10:25:23;99188.91;;;25.88;nan
59600;BME280;61855;55.030;73.326;2022-07-29T10:27:50;99183.97;;;25.85;nan
59600;BME280;61855;55.030;73.326;2022-07-29T10:30:18;99186.19;;;26.02;nan
59600;BME280;61855;55.030;73.326;2022-07-29T10:35:58;99173.25;;;26.16;nan
59600;BME280;61855;55.030;73.326;2022-07-29T10:38:48;99163.44;;;26.24;nan
59600;BME280;61855;55.030;73.326;2022-07-29T10:44:20;99184.91;;;27.40;nan
59600;BME280;61855;55.030;73.326;2022-07-29T10:46:46;99181.47;;;28.76;nan
59600;BME280;61855;55.030;73.326;2022-07-29T10:49:19;99167.44;;;29.55;nan
59600;BME280;61855;55.030;73.326;2022-07-29T10:52:06;99168.50;;;30.57;nan
59600;BME280;61855;55.030;73.326;2022-07-29T11:05:03;99173.13;;;31.70;nan
59600;BME280;61855;55.030;73.326;2022-07-29T11:07:31;99174.88;;;32.60;nan
59600;BME280;61855;55.030;73.326;2022-07-29T11:18:20;99168.13;;;33.58;nan
59600;BME280;61855;55.030;73.326;2022-07-29T11:20:48;99178.84;;;34.24;nan
59600;BME280;61855;55.030;73.326;2022-07-29T11:31:09;99153.16;;;34.49;nan
59600;BME280;61855;55.030;73.326;2022-07-29T11:33:36;99183.63;;;33.56;nan
59600;BME280;61855;55.030;73.326;2022-07-29T11:36:14;99192.66;;;33.77;nan
59600;BME280;61855;55.030;73.326;2022-07-29T11:38:45;99189.91;;;33.92;nan
59600;BME280;61855;55.030;73.326;2022-07-29T11:44:00;99174.38;;;34.07;nan
59600;BME280;61855;55.030;73.326;2022-07-29T11:49:22;99192.97;;;32.87;nan
59600;BME280;61855;55.030;73.326;2022-07-29T11:51:57;99188.75;;;34.05;nan
59600;BME280;61855;55.030;73.326;2022-07-29T11:54:31;99184.66;;;34.58;nan
59600;BME280;61855;55.030;73.326;2022-07-29T11:56:58;99186.81;;;34.96;nan
59600;BME280;61855;55.030;73.326;2022-07-29T11:59:25;99189.34;;;32.99;nan
59600;BME280;61855;55.030;73.326;2022-07-29T12:01:58;99173.84;;;31.79;nan
59600;BME280;61855;55.030;73.326;2022-07-29T12:04:25;99198.31;;;32.35;nan
59600;BME280;61855;55.030;73.326;2022-07-29T12:06:53;99183.50;;;32.23;nan
59600;BME280;61855;55.030;73.326;2022-07-29T12:09:32;99198.78;;;32.04;nan
59600;BME280;61855;55.030;73.326;2022-07-29T12:11:59;99188.53;;;32.98;nan
59600;BME280;61855;55.030;73.326;2022-07-29T12:14:33;99189.91;;;33.40;nan
59600;BME280;61855;55.030;73.326;2022-07-29T12:16:59;99198.06;;;33.46;nan
59600;BME280;61855;55.030;73.326;2022-07-29T12:19:26;99200.84;;;33.70;nan
59600;BME280;61855;55.030;73.326;2022-07-29T12:21:54;99190.75;;;33.93;nan
59600;BME280;61855;55.030;73.326;2022-07-29T12:24:23;99192.56;;;34.13;nan
59600;BME280;61855;55.030;73.326;2022-07-29T12:26:57;99199.66;;;34.23;nan
59600;BME280;61855;55.030;73.326;2022-07-29T12:29:23;99212.56;;;34.27;nan
59600;BME280;61855;55.030;73.326;2022-07-29T12:32:02;99219.28;;;34.38;nan
59600;BME280;61855;55.030;73.326;2022-07-29T12:34:38;99220.50;;;34.53;nan
59600;BME280;61855;55.030;73.326;2022-07-29T12:37:04;99226.69;;;34.74;nan
59600;BME280;61855;55.030;73.326;2022-07-29T12:39:34;99231.69;;;35.12;nan
59600;BME280;61855;55.030;73.326;2022-07-29T12:42:00;99228.50;;;34.11;nan
59600;BME280;61855;55.030;73.326;2022-07-29T12:44:48;99229.91;;;31.65;nan
59600;BME280;61855;55.030;73.326;2022-07-29T12:47:16;99233.44;;;31.54;nan
59600;BME280;61855;55.030;73.326;2022-07-29T12:49:44;99250.53;;;32.35;nan
59600;BME280;61855;55.030;73.326;2022-07-29T12:52:27;99242.66;;;32.82;nan
59600;BME280;61855;55.030;73.326;2022-07-29T12:55:00;99237.22;;;32.20;nan
59600;BME280;61855;55.030;73.326;2022-07-29T12:57:47;99250.13;;;31.33;nan
59600;BME280;61855;55.030;73.326;2022-07-29T13:00:15;99240.63;;;30.07;nan
59600;BME280;61855;55.030;73.326;2022-07-29T13:02:55;99257.75;;;30.69;nan
59600;BME280;61855;55.030;73.326;2022-07-29T13:05:22;99258.94;;;31.06;nan
59600;BME280;61855;55.030;73.326;2022-07-29T13:07:48;99243.97;;;31.48;nan
59600;BME280;61855;55.030;73.326;2022-07-29T13:10:21;99251.28;;;31.61;nan
59600;BME280;61855;55.030;73.326;2022-07-29T13:15:43;99272.03;;;31.93;nan
59600;BME280;61855;55.030;73.326;2022-07-29T13:18:31;99269.94;;;31.90;nan
59600;BME280;61855;55.030;73.326;2022-07-29T13:21:10;99272.19;;;31.96;nan
59600;BME280;61855;55.030;73.326;2022-07-29T13:23:37;99260.44;;;32.12;nan
59600;BME280;61855;55.030;73.326;2022-07-29T13:26:09;99277.63;;;31.93;nan
59600;BME280;61855;55.030;73.326;2022-07-29T13:28:35;99278.50;;;31.85;nan
59600;BME280;61855;55.030;73.326;2022-07-29T13:31:02;99289.72;;;31.76;nan
59600;BME280;61855;55.030;73.326;2022-07-29T13:33:28;99285.72;;;31.86;nan
59600;BME280;61855;55.030;73.326;2022-07-29T13:35:59;99278.13;;;31.95;nan
59600;BME280;61855;55.030;73.326;2022-07-29T13:38:26;99294.03;;;31.94;nan
59600;BME280;61855;55.030;73.326;2022-07-29T13:41:02;99297.41;;;31.79;nan
59600;BME280;61855;55.030;73.326;2022-07-29T13:43:28;99279.69;;;31.55;nan
59600;BME280;61855;55.030;73.326;2022-07-29T13:45:55;99298.94;;;31.01;nan
59600;BME280;61855;55.030;73.326;2022-07-29T13:48:31;99299.28;;;30.91;nan
59600;BME280;61855;55.030;73.326;2022-07-29T13:50:58;99284.91;;;30.72;nan
59600;BME280;61855;55.030;73.326;2022-07-29T13:53:29;99294.41;;;30.62;nan
59600;BME280;61855;55.030;73.326;2022-07-29T13:55:55;99311.31;;;30.32;nan
59600;BME280;61855;55.030;73.326;2022-07-29T13:58:21;99294.94;;;29.96;nan
59600;BME280;61855;55.030;73.326;2022-07-29T14:00:47;99306.22;;;29.91;nan
59600;BME280;61855;55.030;73.326;2022-07-29T14:03:13;99306.22;;;29.43;nan
59600;BME280;61855;55.030;73.326;2022-07-29T14:05:39;99300.19;;;29.10;nan
59600;BME280;61855;55.030;73.326;2022-07-29T14:08:05;99306.50;;;28.94;nan
59600;BME280;61855;55.030;73.326;2022-07-29T14:10:41;99306.13;;;28.87;nan
59600;BME280;61855;55.030;73.326;2022-07-29T14:13:07;99299.56;;;28.74;nan
59600;BME280;61855;55.030;73.326;2022-07-29T14:15:33;99303.31;;;28.56;nan